createdAt,value
2018-12-19T00:01:12.729Z,20.53
2018-12-19T00:06:07.078Z,20.03
2018-12-19T00:11:00.519Z,21.90
2018-12-19T00:15:54.595Z,20.30
2018-12-19T00:20:47.603Z,20.63
2018-12-19T00:25:40.801Z,21.17
2018-12-19T00:30:33.911Z,20.33
2018-12-19T00:35:26.775Z,19.40
2018-12-19T00:40:19.874Z,20.40
2018-12-19T00:45:12.928Z,20.00
2018-12-19T00:50:06.381Z,20.93
2018-12-19T00:54:59.369Z,19.93
2018-12-19T00:59:52.676Z,17.90
2018-12-19T01:04:48.234Z,18.47
2018-12-19T01:09:40.932Z,17.90
2018-12-19T01:14:33.899Z,17.93
2018-12-19T01:19:26.970Z,17.80
2018-12-19T01:24:19.900Z,16.20
2018-12-19T01:29:12.945Z,16.80
2018-12-19T01:34:06.183Z,17.30
2018-12-19T01:39:00.070Z,16.90
2018-12-19T01:43:53.054Z,17.23
2018-12-19T01:48:46.122Z,17.60
2018-12-19T01:53:40.305Z,16.97
2018-12-19T01:58:33.292Z,14.93
2018-12-19T02:03:26.245Z,16.20
2018-12-19T02:08:19.313Z,15.47
2018-12-19T02:13:12.421Z,14.50
2018-12-19T02:18:07.196Z,16.20
2018-12-19T02:23:00.267Z,13.83
2018-12-19T02:27:53.348Z,14.83
2018-12-19T02:32:46.303Z,14.20
2018-12-19T02:37:39.306Z,14.00
2018-12-19T02:42:32.302Z,14.40
2018-12-19T02:47:26.067Z,13.47
2018-12-19T02:52:18.993Z,13.60
2018-12-19T02:57:12.618Z,11.23
2018-12-19T03:02:05.750Z,12.50
2018-12-19T03:06:58.938Z,11.83
2018-12-19T03:11:51.994Z,13.27
2018-12-19T03:16:45.274Z,13.60
2018-12-19T03:21:38.235Z,13.57
2018-12-19T03:26:31.306Z,14.10
2018-12-19T03:31:24.549Z,13.13
2018-12-19T03:36:17.855Z,13.13
2018-12-19T03:41:10.724Z,12.83
2018-12-19T03:46:03.697Z,12.87
2018-12-19T03:50:56.670Z,12.67
2018-12-19T03:55:50.356Z,12.53
2018-12-19T04:00:43.437Z,12.20
2018-12-19T04:05:36.663Z,10.83
2018-12-19T04:10:30.285Z,11.33
2018-12-19T04:15:23.356Z,11.50
2018-12-19T04:20:17.616Z,12.20
2018-12-19T04:25:10.765Z,11.10
2018-12-19T04:30:07.253Z,11.53
2018-12-19T04:35:00.759Z,10.57
2018-12-19T04:39:53.725Z,10.30
2018-12-19T04:44:46.797Z,11.03
2018-12-19T04:49:40.653Z,10.33
2018-12-19T04:54:33.617Z,11.17
2018-12-19T04:59:26.652Z,10.03
2018-12-19T05:04:19.598Z,11.03
2018-12-19T05:09:12.525Z,10.87
2018-12-19T05:14:06.270Z,11.53
2018-12-19T05:18:59.416Z,11.90
2018-12-19T05:23:53.327Z,12.00
2018-12-19T05:28:46.483Z,11.53
2018-12-19T05:33:39.548Z,10.93
2018-12-19T05:38:34.300Z,12.43
2018-12-19T05:43:27.392Z,11.53
2018-12-19T05:48:20.911Z,12.23
2018-12-19T05:53:16.089Z,12.60
2018-12-19T05:58:10.700Z,11.57
2018-12-19T06:03:06.784Z,13.30
2018-12-19T06:08:00.259Z,12.73
2018-12-19T06:12:53.232Z,12.77
2018-12-19T06:17:47.420Z,12.60
2018-12-19T06:22:40.493Z,13.93
2018-12-19T06:27:34.178Z,13.60
2018-12-19T06:32:30.099Z,13.77
2018-12-19T06:37:24.005Z,11.87
2018-12-19T06:42:16.972Z,13.37
2018-12-19T06:47:17.399Z,13.63
2018-12-19T06:52:11.673Z,12.70
2018-12-19T06:57:06.476Z,13.77
2018-12-19T07:01:59.742Z,13.63
2018-12-19T07:06:53.700Z,12.67
2018-12-19T07:11:46.567Z,13.20
2018-12-19T07:16:43.393Z,13.47
2018-12-19T07:21:40.072Z,13.60
2018-12-19T07:26:33.858Z,13.87
2018-12-19T07:31:26.826Z,13.30
2018-12-19T07:36:20.306Z,13.87
2018-12-19T07:41:14.607Z,13.47
2018-12-19T07:46:07.787Z,13.97
2018-12-19T07:51:00.850Z,14.27
2018-12-19T07:55:54.367Z,14.07
2018-12-19T08:00:47.592Z,13.33
2018-12-19T08:05:40.817Z,14.70
2018-12-19T08:10:37.639Z,13.53
2018-12-19T08:15:36.809Z,13.37
2018-12-19T08:20:31.013Z,14.20
2018-12-19T08:25:25.481Z,13.97
2018-12-19T08:30:23.968Z,14.27
2018-12-19T08:35:17.026Z,13.47
2018-12-19T08:40:11.141Z,12.80
2018-12-19T08:45:05.099Z,13.80
2018-12-19T08:49:58.074Z,13.43
2018-12-19T08:54:51.064Z,12.33
2018-12-19T08:59:44.738Z,14.73
2018-12-19T09:04:37.798Z,12.83
2018-12-19T09:09:31.853Z,12.80
2018-12-19T09:14:28.951Z,13.27
2018-12-19T09:19:24.597Z,13.60
2018-12-19T09:24:17.553Z,12.90
2018-12-19T09:29:12.116Z,13.13
2018-12-19T09:34:05.438Z,13.97
2018-12-19T09:38:58.299Z,13.60
2018-12-19T09:43:51.372Z,13.77
2018-12-19T09:48:44.952Z,12.57
2018-12-19T09:53:38.950Z,13.20
2018-12-19T09:58:33.059Z,13.33
2018-12-19T10:03:26.518Z,12.90
2018-12-19T10:08:25.749Z,13.90
2018-12-19T10:13:21.101Z,13.00
2018-12-19T10:18:14.129Z,11.93
2018-12-19T10:23:09.072Z,12.07
2018-12-19T10:28:04.202Z,13.10
2018-12-19T10:32:57.027Z,12.30
2018-12-19T10:37:51.047Z,14.60
2018-12-19T10:42:44.040Z,14.20
2018-12-19T10:47:36.954Z,13.87
2018-12-19T10:52:32.631Z,13.40
2018-12-19T10:57:28.120Z,14.20
2018-12-19T11:02:25.213Z,13.17
2018-12-19T11:07:18.349Z,14.50
2018-12-19T11:12:14.806Z,13.97
2018-12-19T11:17:10.550Z,13.77
2018-12-19T11:22:03.705Z,11.87
2018-12-19T11:26:56.884Z,13.87
2018-12-19T11:31:49.745Z,13.97
2018-12-19T11:36:43.121Z,13.63
2018-12-19T11:41:38.988Z,14.67
2018-12-19T11:46:34.888Z,14.70
2018-12-19T11:51:27.762Z,15.10
2018-12-19T11:56:20.628Z,16.03
2018-12-19T12:01:13.505Z,16.20
2018-12-19T12:06:06.870Z,15.83
2018-12-19T12:10:59.720Z,17.00
2018-12-19T12:15:53.312Z,18.27
2018-12-19T12:20:46.187Z,17.63
2018-12-19T12:25:39.070Z,17.00
2018-12-19T12:30:32.069Z,17.50
2018-12-19T12:35:26.118Z,16.50
2018-12-19T12:40:19.295Z,17.30
2018-12-19T12:45:13.178Z,16.27
2018-12-19T12:50:07.080Z,16.43
2018-12-19T12:55:00.033Z,17.67
2018-12-19T12:59:54.355Z,18.20
2018-12-19T13:04:50.851Z,17.20
2018-12-19T13:09:45.489Z,18.53
2018-12-19T13:14:38.970Z,18.63
2018-12-19T13:19:31.939Z,17.17
2018-12-19T13:24:24.757Z,18.43
2018-12-19T13:29:17.723Z,16.90
2018-12-19T13:34:13.094Z,17.80
2018-12-19T13:39:14.449Z,17.37
2018-12-19T13:44:08.868Z,16.67
2018-12-19T13:49:01.765Z,17.23
2018-12-19T13:53:54.696Z,17.47
2018-12-19T13:58:47.891Z,18.10
2018-12-19T14:03:42.428Z,18.77
2018-12-19T14:08:35.444Z,18.20
2018-12-19T14:13:28.718Z,17.23
2018-12-19T14:18:22.630Z,17.77
2018-12-19T14:23:15.677Z,18.53
2018-12-19T14:28:09.976Z,19.63
2018-12-19T14:33:06.334Z,18.60
2018-12-19T14:37:59.194Z,18.53
2018-12-19T14:42:55.665Z,18.17
2018-12-19T14:47:48.721Z,18.83
2018-12-19T14:52:43.516Z,18.93
2018-12-19T14:57:36.691Z,19.57
2018-12-19T15:02:29.985Z,18.60
2018-12-19T15:07:22.832Z,20.17
2018-12-19T15:12:15.697Z,21.07
2018-12-19T15:17:13.824Z,21.23
2018-12-19T15:22:04.996Z,20.87
2018-12-19T15:26:58.099Z,20.43
2018-12-19T15:31:51.689Z,21.07
2018-12-19T15:36:44.735Z,23.13
2018-12-19T15:41:38.425Z,21.73
2018-12-19T15:46:32.928Z,21.03
2018-12-19T15:51:26.112Z,22.00
2018-12-19T15:56:18.962Z,19.53
2018-12-19T16:01:21.065Z,22.93
2018-12-19T16:06:14.014Z,24.43
2018-12-19T16:11:07.352Z,23.80
2018-12-19T16:16:00.870Z,23.37
2018-12-19T16:20:54.352Z,24.07
2018-12-19T16:25:47.216Z,24.67
2018-12-19T16:30:40.186Z,24.27
2018-12-19T16:35:33.243Z,25.27
2018-12-19T16:40:26.327Z,24.03
2018-12-19T16:45:19.296Z,23.73
2018-12-19T16:50:12.450Z,24.03
2018-12-19T16:55:06.253Z,25.03
2018-12-19T16:59:59.324Z,30.57
2018-12-19T17:04:52.189Z,25.97
2018-12-19T17:09:45.261Z,26.27
2018-12-19T17:14:38.381Z,26.37
2018-12-19T17:25:37.505Z,27.23
2018-12-19T17:30:30.658Z,27.67
2018-12-19T17:35:23.846Z,27.67
2018-12-19T17:40:17.223Z,29.47
2018-12-19T17:45:11.099Z,28.40
2018-12-19T17:50:06.595Z,30.07
2018-12-19T17:54:59.592Z,28.73
2018-12-19T17:59:52.458Z,27.10
2018-12-19T18:04:46.126Z,27.20
2018-12-19T18:09:40.367Z,29.77
2018-12-19T18:14:33.514Z,29.20
2018-12-19T18:19:26.723Z,31.30
2018-12-19T18:24:19.756Z,30.43
2018-12-19T18:29:14.454Z,32.50
2018-12-19T18:34:07.638Z,31.03
2018-12-19T18:39:01.325Z,32.73
2018-12-19T18:43:54.291Z,32.63
2018-12-19T18:48:48.282Z,35.97
2018-12-19T18:53:41.458Z,39.40
2018-12-19T18:58:34.383Z,36.37
2018-12-19T19:03:29.292Z,36.87
2018-12-19T19:08:22.215Z,33.37
2018-12-19T19:13:19.732Z,33.20
2018-12-19T19:18:10.290Z,34.17
2018-12-19T19:23:05.409Z,33.53
2018-12-19T19:27:59.758Z,35.23
2018-12-19T19:32:53.814Z,35.73
2018-12-19T19:37:46.876Z,33.07
2018-12-19T19:42:40.149Z,33.80
2018-12-19T19:47:33.128Z,34.47
2018-12-19T19:52:26.131Z,32.80
2018-12-19T19:57:19.059Z,35.13
2018-12-19T20:02:13.297Z,33.07
2018-12-19T20:07:06.232Z,35.93
2018-12-19T20:12:00.212Z,34.43
2018-12-19T20:17:03.637Z,33.63
2018-12-19T20:21:56.590Z,35.47
2018-12-19T20:26:49.665Z,35.60
2018-12-19T20:31:44.096Z,34.13
2018-12-19T20:36:37.543Z,37.50
2018-12-19T20:41:31.139Z,34.87
2018-12-19T20:46:26.039Z,35.80
2018-12-19T20:51:19.111Z,34.87
2018-12-19T20:56:14.070Z,34.23
2018-12-19T21:01:07.739Z,37.23
2018-12-19T21:06:00.983Z,35.10
2018-12-19T21:10:54.261Z,36.67
2018-12-19T21:15:47.329Z,33.80
2018-12-19T21:20:41.530Z,37.10
2018-12-19T21:25:35.005Z,36.17
2018-12-19T21:30:28.795Z,36.70
2018-12-19T21:35:21.863Z,36.47
2018-12-19T21:40:15.867Z,35.43
2018-12-19T21:45:08.881Z,35.97
2018-12-19T21:50:02.173Z,36.50
2018-12-19T21:54:55.271Z,34.77
2018-12-19T21:59:49.112Z,35.70
2018-12-19T22:04:42.133Z,35.43
2018-12-19T22:09:36.395Z,35.90
2018-12-19T22:14:29.601Z,34.63
2018-12-19T22:19:22.574Z,32.87
2018-12-19T22:24:15.596Z,34.27
2018-12-19T22:29:09.104Z,31.87
2018-12-19T22:34:03.700Z,33.20
2018-12-19T22:38:56.902Z,32.30
2018-12-19T22:43:49.984Z,32.83
2018-12-19T22:48:43.411Z,32.83
2018-12-19T22:53:36.696Z,35.20
2018-12-19T22:58:30.309Z,34.27
2018-12-19T23:03:25.595Z,34.67
2018-12-19T23:08:19.985Z,34.90
2018-12-19T23:13:13.103Z,35.63
2018-12-19T23:18:12.727Z,38.70
2018-12-19T23:23:08.152Z,39.77
2018-12-19T23:28:04.395Z,39.63
2018-12-19T23:32:57.466Z,39.13
2018-12-19T23:37:50.245Z,39.30
2018-12-19T23:42:43.789Z,39.63
2018-12-19T23:47:36.782Z,39.33
2018-12-19T23:52:29.748Z,37.33
2018-12-19T23:57:23.151Z,38.70
